Date,TemperatureHighF,TemperatureAvgF,TemperatureLowF,DewpointHighF,DewpointAvgF,DewpointLowF,HumidityHigh,HumidityAvg,HumidityLow,PressureMaxIn,PressureMinIn,WindSpeedMaxMPH,WindSpeedAvgMPH,GustSpeedMaxMPH,PrecipitationSumIn
2013-3-1,54.6,41.8,30.1,34.0,29.9,25.0,85,64,45,30.00,29.88,8,1,14,0.00
2013-3-2,46.6,37.8,31.2,40.0,31.8,27.0,91,79,67,29.97,29.89,7,1,13,0.02
2013-3-3,48.1,36.7,27.4,29.0,25.3,21.0,88,65,42,30.06,29.94,8,1,12,0.00
2013-3-4,57.1,40.8,23.9,33.0,23.9,19.0,83,55,28,30.22,30.06,4,0,10,0.00
2013-3-5,67.4,53.1,37.9,56.0,43.2,31.0,93,70,55,30.12,29.69,17,3,23,0.04
2013-3-6,49.7,41.5,34.1,36.0,27.4,21.0,78,58,44,30.15,29.78,19,6,28,0.00
2013-3-7,59.0,42.1,26.4,36.0,30.5,23.0,91,66,41,30.27,30.15,5,0,11,0.00
2013-3-8,61.0,46.4,34.5,33.0,27.9,25.0,71,51,27,30.32,30.19,11,1,13,0.00
2013-3-9,64.0,50.4,37.6,37.0,31.8,26.0,66,50,33,30.36,30.23,3,0,10,0.00
2013-3-10,70.2,54.9,40.4,49.0,42.0,35.0,83,64,38,30.29,30.15,5,0,9,0.00
2013-3-11,70.5,59.4,47.2,56.0,49.2,39.0,82,70,56,30.19,29.84,10,2,15,0.00
2013-3-12,67.5,59.4,52.5,58.0,51.2,38.0,96,77,46,30.00,29.78,8,2,15,0.25
2013-3-13,63.1,51.3,38.6,37.0,31.4,24.0,78,49,29,30.18,30.00,16,3,21,0.00
2013-3-14,56.4,42.4,28.8,29.0,24.3,21.0,76,51,31,30.34,30.18,9,1,13,0.00
2013-3-15,72.7,52.7,32.2,44.0,33.6,23.0,76,50,35,30.26,30.01,7,1,13,0.00
2013-3-16,79.6,65.9,51.4,48.0,44.8,42.0,73,49,31,30.02,29.86,13,2,18,0.00
2013-3-17,75.0,64.5,54.7,56.0,51.6,46.0,83,64,46,30.03,29.92,4,0,14,0.00
2013-3-18,67.3,58.5,47.8,61.0,54.2,46.0,96,86,77,30.06,29.82,15,0,37,0.80
2013-3-19,72.5,57.5,48.8,54.0,43.4,30.0,97,67,25,30.04,29.86,9,2,14,0.02
2013-3-20,61.5,52.4,45.1,33.0,26.9,23.0,48,38,26,30.13,29.86,5,0,10,0.00
2013-3-21,54.8,45.7,36.8,29.0,21.9,15.0,64,41,24,29.96,29.84,12,3,18,0.00
2013-3-22,49.3,41.9,34.4,33.0,23.9,17.0,64,49,40,30.11,29.98,3,0,7,0.00
2013-3-23,54.1,47.0,43.7,52.0,41.5,32.0,96,82,63,30.07,29.90,13,0,13,0.31
2013-3-24,48.6,46.8,44.2,48.0,45.5,43.0,100,95,93,29.89,29.57,9,1,16,1.23
2013-3-25,51.1,44.0,37.4,45.0,30.5,23.0,96,61,41,30.01,29.63,22,6,28,0.01
2013-3-26,49.5,39.7,30.5,30.0,26.3,23.0,77,60,45,30.24,30.00,15,2,20,0.00
2013-3-27,57.0,41.9,27.2,31.0,27.2,23.0,87,59,34,30.32,30.21,9,1,13,0.00
2013-3-28,60.6,45.7,29.8,31.0,27.6,24.0,82,53,29,30.35,30.21,9,1,17,0.00
2013-3-29,67.2,52.9,37.8,37.0,30.7,25.0,71,45,29,30.36,30.21,8,0,9,0.00
2013-3-30,73.4,60.6,49.7,49.0,45.2,35.0,80,58,42,30.23,30.05,6,0,11,0.00
2013-3-31,77.6,65.0,57.7,60.0,55.4,49.0,91,72,48,30.05,29.86,8,1,18,0.06